| time (UTC) | temp F | wind direction | speed knots | gust knots | rain 1hr in | rain 24hr in | rain mn in | humidity % | barometer mb |
| 20260507060747 | 50 | 0 | 0.0 | 0.0 | 0.00 | 0.00 | 0.00 | 99 | 1008.0 |
| 20260507060247 | 50 | 0 | 0.0 | 0.0 | 0.00 | 0.00 | 0.00 | 99 | 1008.0 |
| 20260507055746 | 50 | 0 | 0.0 | 0.0 | 0.00 | 0.00 | 0.00 | 99 | 1008.0 |
| 20260507055247 | 50 | 0 | 0.0 | 0.0 | 0.00 | 0.00 | 0.00 | 99 | 1008.0 |
| 20260507054746 | 50 | 0 | 0.0 | 0.0 | 0.00 | 0.00 | 0.00 | 99 | 1008.0 |
| 20260507054246 | 50 | 0 | 0.0 | 0.0 | 0.00 | 0.00 | 0.00 | 99 | 1008.0 |
| 20260507053746 | 50 | 0 | 0.0 | 0.0 | 0.00 | 0.00 | 0.00 | 99 | 1008.0 |
| 20260507053247 | 50 | 0 | 0.0 | 0.0 | 0.00 | 0.00 | 0.00 | 99 | 1008.0 |
| 20260507052746 | 50 | 105 | 0.0 | 0.0 | 0.00 | 0.00 | 0.00 | 99 | 1008.0 |
| 20260507052247 | 50 | 0 | 0.0 | 0.0 | 0.00 | 0.00 | 0.00 | 99 | 1008.0 |
| 20260507051746 | 50 | 0 | 0.0 | 0.0 | 0.00 | 0.00 | 0.00 | 99 | 1008.0 |
| 20260507051247 | 50 | 67 | 0.0 | 0.0 | 0.00 | 0.00 | 0.00 | 99 | 1008.0 |
| 20260507050746 | 50 | 0 | 0.0 | 0.0 | 0.00 | 0.00 | 0.00 | 100 | 1009.0 |
| 20260507050247 | 51 | 0 | 0.0 | 0.0 | 0.00 | 0.00 | 0.00 | 100 | 1009.0 |
| 20260507045746 | 51 | 0 | 0.0 | 0.0 | 0.00 | 0.00 | 0.00 | 100 | 1008.0 |
| 20260507045246 | 51 | 0 | 0.0 | 0.0 | 0.00 | 0.00 | 0.00 | 100 | 1008.0 |
| 20260507044746 | 51 | 0 | 0.0 | 0.0 | 0.00 | 0.00 | 0.00 | 99 | 1008.0 |
| 20260507044246 | 51 | 107 | 0.0 | 0.0 | 0.00 | 0.00 | 0.00 | 99 | 1008.0 |
| 20260507043747 | 51 | 0 | 0.0 | 0.0 | 0.00 | 0.00 | 0.00 | 100 | 1008.0 |
| 20260507043247 | 51 | 149 | 0.0 | 0.9 | 0.00 | 0.00 | 0.00 | 100 | 1008.0 |
| 20260507042746 | 51 | 0 | 0.0 | 0.0 | 0.00 | 0.00 | 0.00 | 100 | 1008.0 |
| 20260507042246 | 51 | 136 | 0.9 | 1.7 | 0.00 | 0.00 | 0.00 | 100 | 1008.0 |
| 20260507041747 | 51 | 0 | 0.0 | 0.0 | 0.00 | 0.00 | 0.00 | 100 | 1008.0 |
| 20260507041247 | 51 | 0 | 0.0 | 0.0 | 0.00 | 0.00 | 0.00 | 100 | 1008.0 |
| 20260507040749 | 51 | 106 | 0.9 | 1.7 | 0.00 | 0.00 | 0.00 | 99 | 1008.0 |
| 20260507040246 | 51 | 0 | 0.0 | 0.0 | 0.00 | 0.00 | 0.00 | 100 | 1008.0 |
| 20260507035746 | 52 | 0 | 0.0 | 0.0 | 0.00 | 0.00 | 0.35 | 100 | 1008.0 |
| 20260507035248 | 52 | 0 | 0.0 | 0.0 | 0.00 | 0.00 | 0.34 | 99 | 1008.0 |
| 20260507034746 | 52 | 0 | 0.0 | 0.0 | 0.00 | 0.00 | 0.34 | 100 | 1008.0 |
| 20260507034246 | 52 | 0 | 0.0 | 0.0 | 0.00 | 0.00 | 0.34 | 99 | 1008.0 |
| 20260507033746 | 52 | 0 | 0.0 | 0.0 | 0.00 | 0.00 | 0.34 | 99 | 1008.0 |
| 20260507033246 | 52 | 0 | 0.0 | 0.0 | 0.00 | 0.00 | 0.34 | 99 | 1008.0 |
| 20260507032746 | 52 | 0 | 0.0 | 0.0 | 0.00 | 0.00 | 0.34 | 99 | 1008.0 |
| 20260507032246 | 53 | 0 | 0.0 | 0.0 | 0.02 | 0.00 | 0.33 | 98 | 1008.0 |
| 20260507031746 | 53 | 0 | 0.0 | 0.0 | 0.16 | 0.00 | 0.32 | 98 | 1008.0 |
| 20260507031247 | 53 | 0 | 0.0 | 0.0 | 0.00 | 0.00 | 0.32 | 97 | 1008.0 |
| 20260507030746 | 54 | 330 | 0.0 | 0.9 | 0.00 | 0.00 | 0.31 | 97 | 1008.0 |
| 20260507030247 | 54 | 321 | 0.9 | 1.7 | 0.00 | 0.00 | 0.31 | 97 | 1008.0 |
| 20260507025747 | 55 | 322 | 0.0 | 0.0 | 0.03 | 0.00 | 0.31 | 97 | 1008.0 |
| 20260507025247 | 56 | 0 | 0.0 | 0.0 | 0.00 | 0.00 | 0.30 | 99 | 1008.0 |
| 20260507024746 | 56 | 0 | 0.0 | 0.0 | 0.01 | 0.00 | 0.30 | 100 | 1008.0 |
| 20260507024247 | 56 | 0 | 0.0 | 0.0 | 0.02 | 0.00 | 0.30 | 99 | 1008.0 |
| 20260507023747 | 56 | 0 | 0.0 | 0.0 | 0.00 | 0.00 | 0.30 | 99 | 1008.0 |
| 20260507023247 | 56 | 0 | 0.0 | 0.0 | 0.00 | 0.00 | 0.30 | 99 | 1008.0 |
| 20260507022746 | 57 | 137 | 0.0 | 1.7 | 0.00 | 0.00 | 0.30 | 99 | 1007.0 |
| 20260507022247 | 57 | 0 | 0.0 | 0.0 | 0.00 | 0.00 | 0.30 | 98 | 1007.0 |
| 20260507021746 | 57 | 150 | 0.0 | 0.0 | 0.00 | 0.00 | 0.30 | 99 | 1007.0 |
| 20260507021246 | 57 | 0 | 0.0 | 0.0 | 0.00 | 0.00 | 0.30 | 99 | 1007.0 |
| 20260507020746 | 58 | 183 | 0.9 | 1.7 | 0.00 | 0.00 | 0.30 | 99 | 1007.0 |
| 20260507020246 | 58 | 0 | 0.0 | 0.0 | 0.00 | 0.00 | 0.30 | 99 | 1007.0 |
| 20260507015746 | 58 | 170 | 0.0 | 0.9 | 0.00 | 0.00 | 0.30 | 99 | 1007.0 |
| 20260507015246 | 58 | 0 | 0.0 | 0.0 | 0.00 | 0.00 | 0.30 | 100 | 1007.0 |
| 20260507014747 | 58 | 0 | 0.0 | 0.0 | 0.00 | 0.00 | 0.30 | 100 | 1007.0 |
| 20260507014246 | 58 | 0 | 0.0 | 0.0 | 0.00 | 0.00 | 0.30 | 100 | 1007.0 |
| 20260507013746 | 58 | 296 | 1.7 | 2.6 | 0.00 | 0.00 | 0.30 | 100 | 1007.0 |
| 20260507013246 | 58 | 0 | 0.0 | 0.0 | 0.00 | 0.00 | 0.30 | 100 | 1007.0 |
| 20260507012746 | 58 | 210 | 0.9 | 3.5 | 0.00 | 0.00 | 0.30 | 100 | 1007.0 |
| 20260507012247 | 58 | 136 | 1.7 | 2.6 | 0.00 | 0.00 | 0.30 | 100 | 1007.0 |
| 20260507011746 | 58 | 185 | 1.7 | 3.5 | 0.00 | 0.00 | 0.30 | 100 | 1007.0 |
| 20260507011247 | 58 | 56 | 0.0 | 1.7 | 0.00 | 0.00 | 0.30 | 100 | 1007.0 |
| 20260507010746 | 58 | 172 | 1.7 | 3.5 | 0.00 | 0.00 | 0.30 | 100 | 1006.0 |
| 20260507010246 | 58 | 147 | 3.5 | 5.2 | 0.00 | 0.00 | 0.30 | 100 | 1006.0 |
| 20260507005747 | 58 | 161 | 1.7 | 1.7 | 0.00 | 0.00 | 0.30 | 100 | 1007.0 |
| 20260507005246 | 58 | 106 | 0.0 | 0.0 | 0.00 | 0.00 | 0.30 | 100 | 1006.0 |
| 20260507004746 | 58 | 143 | 2.6 | 4.3 | 0.00 | 0.00 | 0.30 | 100 | 1007.0 |
| 20260507004246 | 58 | 141 | 0.9 | 2.6 | 0.00 | 0.00 | 0.30 | 100 | 1007.0 |
| 20260507003748 | 58 | 189 | 1.7 | 2.6 | 0.00 | 0.00 | 0.30 | 100 | 1007.0 |
| 20260507003246 | 58 | 181 | 0.0 | 1.7 | 0.00 | 0.00 | 0.30 | 100 | 1007.0 |
| 20260507002746 | 58 | 173 | 0.9 | 1.7 | 0.00 | 0.00 | 0.30 | 100 | 1007.0 |
| 20260507002246 | 58 | 144 | 0.9 | 2.6 | 0.00 | 0.00 | 0.30 | 100 | 1007.0 |
| 20260507001746 | 58 | 172 | 2.6 | 3.5 | 0.00 | 0.00 | 0.30 | 100 | 1006.0 |
| 20260507001246 | 58 | 121 | 1.7 | 2.6 | 0.00 | 0.00 | 0.30 | 100 | 1007.0 |
| 20260507000746 | 58 | 133 | 0.9 | 1.7 | 0.00 | 0.00 | 0.30 | 100 | 1006.0 |
| 20260507000246 | 58 | 121 | 1.7 | 2.6 | 0.00 | 0.00 | 0.30 | 100 | 1006.0 |
| 20260506235746 | 58 | 165 | 1.7 | 3.5 | 0.00 | 0.00 | 0.30 | 100 | 1006.0 |
| 20260506235247 | 58 | 150 | 0.9 | 1.7 | 0.00 | 0.00 | 0.30 | 100 | 1006.0 |
| 20260506234747 | 58 | 157 | 3.5 | 5.2 | 0.00 | 0.00 | 0.30 | 100 | 1006.0 |
| 20260506234247 | 58 | 166 | 4.3 | 5.2 | 0.00 | 0.00 | 0.30 | 99 | 1006.0 |
| 20260506233747 | 58 | 166 | 0.0 | 0.0 | 0.00 | 0.00 | 0.30 | 100 | 1006.0 |
| 20260506233246 | 58 | 155 | 2.6 | 3.5 | 0.00 | 0.00 | 0.30 | 99 | 1006.0 |
| 20260506232747 | 58 | 175 | 0.9 | 2.6 | 0.00 | 0.00 | 0.30 | 99 | 1006.0 |
| 20260506232247 | 58 | 153 | 0.9 | 1.7 | 0.00 | 0.00 | 0.32 | 100 | 1006.0 |
| 20260506231747 | 58 | 141 | 0.0 | 0.9 | 0.00 | 0.00 | 0.32 | 100 | 1006.0 |
| 20260506231246 | 58 | 197 | 0.0 | 1.7 | 0.00 | 0.00 | 0.32 | 100 | 1006.0 |
| 20260506230746 | 58 | 107 | 0.0 | 0.9 | 0.00 | 0.00 | 0.32 | 99 | 1006.0 |
| 20260506230246 | 58 | 195 | 0.9 | 1.7 | 0.00 | 0.00 | 0.32 | 100 | 1006.0 |
| 20260506225747 | 58 | 191 | 0.9 | 1.7 | 0.00 | 0.00 | 0.32 | 100 | 1006.0 |
| 20260506225246 | 58 | 104 | 1.7 | 2.6 | 0.00 | 0.00 | 0.32 | 100 | 1006.0 |
| 20260506224746 | 58 | 0 | 0.0 | 0.0 | 0.00 | 0.00 | 0.31 | 100 | 1006.0 |
| 20260506224246 | 58 | 162 | 1.7 | 2.6 | 0.00 | 0.00 | 0.31 | 100 | 1006.0 |
| 20260506223746 | 58 | 179 | 0.9 | 2.6 | 0.01 | 0.00 | 0.31 | 100 | 1006.0 |
| 20260506223247 | 58 | 134 | 0.9 | 1.7 | 0.04 | 0.00 | 0.30 | 100 | 1006.0 |
| 20260506222747 | 58 | 126 | 0.9 | 1.7 | 0.12 | 0.00 | 0.30 | 100 | 1006.0 |
| 20260506222246 | 58 | 162 | 1.7 | 2.6 | 0.04 | 0.00 | 0.30 | 100 | 1006.0 |
| 20260506221746 | 58 | 0 | 0.0 | 0.0 | 0.00 | 0.00 | 0.30 | 100 | 1006.0 |
| 20260506221247 | 58 | 252 | 0.0 | 0.0 | 0.17 | 0.00 | 0.29 | 100 | 1006.0 |
| 20260506220747 | 58 | 136 | 0.9 | 2.6 | 0.23 | 0.00 | 0.27 | 100 | 1006.0 |
| 20260506220247 | 58 | 185 | 0.9 | 0.9 | 0.11 | 0.00 | 0.27 | 100 | 1006.0 |
| 20260506215746 | 58 | 148 | 0.0 | 0.0 | 0.00 | 0.00 | 0.26 | 100 | 1006.0 |
| 20260506215247 | 58 | 168 | 0.9 | 1.7 | 0.04 | 0.00 | 0.26 | 99 | 1006.0 |
| 20260506214747 | 58 | 37 | 0.0 | 1.7 | 0.00 | 0.00 | 0.26 | 99 | 1006.0 |
| 20260506214247 | 58 | 192 | 1.7 | 1.7 | 0.17 | 0.00 | 0.26 | 99 | 1006.0 |
| 20260506213746 | 58 | 112 | 0.0 | 0.0 | 0.00 | 0.00 | 0.25 | 99 | 1006.0 |
| 20260506213246 | 58 | 192 | 1.7 | 3.5 | 0.02 | 0.00 | 0.25 | 99 | 1006.0 |
| 20260506212746 | 58 | 184 | 2.6 | 4.3 | 0.16 | 0.00 | 0.24 | 99 | 1006.0 |
| 20260506212246 | 58 | 187 | 1.7 | 1.7 | 0.01 | 0.00 | 0.24 | 99 | 1006.0 |
| 20260506211746 | 58 | 0 | 0.0 | 0.0 | 0.12 | 0.00 | 0.24 | 99 | 1006.0 |
| 20260506211247 | 58 | 102 | 1.7 | 2.6 | 0.15 | 0.00 | 0.23 | 99 | 1006.0 |
| 20260506210747 | 58 | 152 | 2.6 | 3.5 | 0.03 | 0.00 | 0.22 | 99 | 1006.0 |
| 20260506210246 | 58 | 166 | 1.7 | 5.2 | 0.00 | 0.00 | 0.22 | 99 | 1006.0 |
| 20260506205746 | 58 | 201 | 0.0 | 1.7 | 0.00 | 0.00 | 0.22 | 99 | 1006.0 |
| 20260506205247 | 58 | 84 | 0.9 | 1.7 | 0.01 | 0.00 | 0.22 | 99 | 1006.0 |
| 20260506204747 | 58 | 148 | 1.7 | 2.6 | 0.01 | 0.00 | 0.21 | 99 | 1007.0 |
| 20260506204247 | 58 | 184 | 2.6 | 5.2 | 0.00 | 0.00 | 0.21 | 99 | 1007.0 |
| 20260506203746 | 58 | 173 | 0.9 | 1.7 | 0.02 | 0.00 | 0.20 | 99 | 1007.0 |
| 20260506203247 | 58 | 176 | 1.7 | 2.6 | 0.00 | 0.00 | 0.20 | 99 | 1007.0 |
| 20260506202746 | 58 | 171 | 0.0 | 0.0 | 0.12 | 0.00 | 0.20 | 99 | 1007.0 |
| 20260506202246 | 58 | 168 | 0.0 | 1.7 | 0.02 | 0.00 | 0.21 | 99 | 1007.0 |
| 20260506201752 | 58 | 0 | 0.0 | 0.0 | 0.07 | 0.00 | 0.20 | 99 | 1007.0 |
| 20260506201247 | 58 | 182 | 2.6 | 3.5 | 0.13 | 0.00 | 0.20 | 99 | 1007.0 |
| 20260506200748 | 58 | 0 | 0.0 | 0.0 | 0.03 | 0.00 | 0.18 | 99 | 1007.0 |
| 20260506200246 | 58 | 189 | 0.9 | 1.7 | 0.12 | 0.00 | 0.17 | 98 | 1007.0 |
| 20260506195746 | 58 | 154 | 0.9 | 1.7 | 0.13 | 0.00 | 0.16 | 98 | 1007.0 |
| 20260506195248 | 58 | 221 | 1.7 | 2.6 | 0.17 | 0.00 | 0.15 | 98 | 1007.0 |
| 20260506194751 | 59 | 331 | 0.9 | 1.7 | 0.00 | 0.00 | 0.14 | 98 | 1007.0 |
| 20260506194247 | 59 | 115 | 0.9 | 2.6 | 0.12 | 0.00 | 0.14 | 97 | 1007.0 |
| 20260506193750 | 59 | 162 | 3.5 | 6.1 | 0.05 | 0.00 | 0.13 | 97 | 1007.0 |
| 20260506193249 | 59 | 328 | 0.0 | 0.0 | 0.00 | 0.00 | 0.12 | 97 | 1007.0 |
| 20260506192750 | 59 | 172 | 0.9 | 0.9 | 0.02 | 0.00 | 0.12 | 96 | 1007.0 |
| 20260506192247 | 59 | 103 | 0.9 | 1.7 | 0.01 | 0.00 | 0.13 | 97 | 1007.0 |
| 20260506191750 | 59 | 121 | 1.7 | 2.6 | 0.00 | 0.00 | 0.13 | 96 | 1007.0 |
| 20260506191247 | 60 | 195 | 1.7 | 2.6 | 0.00 | 0.00 | 0.13 | 96 | 1007.0 |
| 20260506190746 | 60 | 139 | 1.7 | 1.7 | 0.00 | 0.00 | 0.13 | 96 | 1007.0 |
| 20260506190254 | 60 | 168 | 0.0 | 1.7 | 0.00 | 0.00 | 0.12 | 96 | 1007.0 |
| 20260506185747 | 60 | 0 | 0.0 | 0.0 | 0.00 | 0.00 | 0.12 | 96 | 1007.0 |
| 20260506185249 | 60 | 216 | 0.9 | 2.6 | 0.05 | 0.00 | 0.12 | 96 | 1007.0 |
| 20260506184747 | 60 | 137 | 1.7 | 3.5 | 0.15 | 0.00 | 0.12 | 95 | 1007.0 |
| 20260506184247 | 60 | 228 | 0.0 | 1.7 | 0.07 | 0.00 | 0.10 | 95 | 1007.0 |
| 20260506183747 | 60 | 174 | 1.7 | 3.5 | 0.03 | 0.00 | 0.09 | 94 | 1007.0 |
| 20260506182800 | 60 | 210 | 1.7 | 2.6 | 0.01 | 0.00 | 0.09 | 96 | 1007.0 |
| 20260506182246 | 60 | 233 | 0.0 | 1.7 | 0.02 | 0.00 | 0.11 | 97 | 1007.0 |
| 20260506181746 | 60 | 219 | 1.7 | 2.6 | 0.05 | 0.00 | 0.11 | 95 | 1007.0 |
| 20260506181247 | 60 | 29 | 0.0 | 1.7 | 0.07 | 0.00 | 0.10 | 95 | 1007.0 |
| 20260506180747 | 60 | 231 | 1.7 | 2.6 | 0.07 | 0.00 | 0.09 | 96 | 1008.0 |
| 20260506180247 | 60 | 153 | 2.6 | 4.3 | 0.05 | 0.00 | 0.08 | 95 | 1008.0 |
| 20260506175746 | 60 | 239 | 0.9 | 3.5 | 0.04 | 0.00 | 0.08 | 95 | 1008.0 |
| 20260506175247 | 60 | 187 | 0.9 | 1.7 | 0.13 | 0.00 | 0.08 | 94 | 1008.0 |
| 20260506174746 | 61 | 195 | 1.7 | 3.5 | 0.11 | 0.00 | 0.06 | 93 | 1008.0 |
| 20260506174247 | 61 | 161 | 2.6 | 3.5 | 0.10 | 0.00 | 0.05 | 91 | 1008.0 |
| 20260506173747 | 61 | 175 | 0.9 | 2.6 | 0.04 | 0.00 | 0.04 | 91 | 1008.0 |
| 20260506173247 | 62 | 164 | 0.0 | 1.7 | 0.07 | 0.00 | 0.04 | 91 | 1008.0 |
| 20260506172746 | 62 | 153 | 1.7 | 3.5 | 0.06 | 0.00 | 0.03 | 89 | 1009.0 |
| 20260506172248 | 62 | 168 | 0.9 | 1.7 | 0.04 | 0.00 | 0.03 | 89 | 1009.0 |
| 20260506171747 | 63 | 159 | 1.7 | 4.3 | 0.05 | 0.00 | 0.02 | 86 | 1009.0 |
| 20260506171250 | 64 | 220 | 0.0 | 0.9 | 0.03 | 0.00 | 0.01 | 84 | 1009.0 |
| 20260506170747 | 65 | 242 | 2.6 | 5.2 | 0.03 | 0.00 | 0.01 | 81 | 1009.0 |
| 20260506170247 | 66 | 232 | 0.9 | 3.5 | 0.08 | 0.00 | 0.00 | 77 | 1008.0 |
| 20260506165747 | 67 | 204 | 2.6 | 5.2 | 0.03 | 0.00 | 0.00 | 74 | 1008.0 |
| 20260506165247 | 67 | 164 | 2.6 | 6.1 | 0.00 | 0.00 | 0.00 | 72 | 1008.0 |
| 20260506164748 | 67 | 197 | 0.0 | 1.7 | 0.00 | 0.00 | 0.00 | 72 | 1008.0 |
| 20260506164247 | 67 | 284 | 1.7 | 3.5 | 0.00 | 0.00 | 0.00 | 72 | 1008.0 |
| 20260506163747 | 66 | 183 | 3.5 | 6.1 | 0.00 | 0.00 | 0.00 | 72 | 1008.0 |
| 20260506163247 | 67 | 184 | 1.7 | 3.5 | 0.00 | 0.00 | 0.00 | 72 | 1008.0 |
| 20260506162746 | 67 | 205 | 1.7 | 2.6 | 0.00 | 0.00 | 0.00 | 72 | 1008.0 |
| 20260506162246 | 67 | 176 | 2.6 | 4.3 | 0.00 | 0.00 | 0.00 | 72 | 1009.0 |
| 20260506161747 | 66 | 162 | 3.5 | 7.0 | 0.00 | 0.00 | 0.00 | 72 | 1008.0 |
| 20260506161247 | 66 | 256 | 2.6 | 7.8 | 0.00 | 0.00 | 0.00 | 72 | 1009.0 |
| 20260506160746 | 66 | 166 | 1.7 | 7.0 | 0.00 | 0.00 | 0.00 | 73 | 1009.0 |
| 20260506160253 | 66 | 191 | 2.6 | 5.2 | 0.00 | 0.00 | 0.00 | 72 | 1009.0 |
| 20260506155748 | 67 | 253 | 2.6 | 7.0 | 0.00 | 0.00 | 0.00 | 72 | 1009.0 |
| 20260506155247 | 66 | 246 | 0.0 | 0.0 | 0.00 | 0.00 | 0.00 | 73 | 1009.0 |
| 20260506154747 | 66 | 216 | 1.7 | 3.5 | 0.00 | 0.00 | 0.00 | 73 | 1009.0 |
| 20260506154246 | 66 | 159 | 2.6 | 4.3 | 0.00 | 0.00 | 0.00 | 73 | 1009.0 |
| 20260506153746 | 66 | 236 | 1.7 | 3.5 | 0.00 | 0.00 | 0.00 | 72 | 1009.0 |
| 20260506153247 | 66 | 299 | 1.7 | 2.6 | 0.00 | 0.00 | 0.00 | 73 | 1009.0 |
| 20260506152747 | 66 | 162 | 2.6 | 4.3 | 0.00 | 0.00 | 0.00 | 73 | 1009.0 |
| 20260506152247 | 66 | 224 | 2.6 | 5.2 | 0.00 | 0.00 | 0.00 | 73 | 1009.0 |
| 20260506151746 | 66 | 166 | 3.5 | 7.8 | 0.00 | 0.00 | 0.00 | 74 | 1009.0 |
| 20260506151247 | 66 | 236 | 0.9 | 3.5 | 0.00 | 0.00 | 0.00 | 74 | 1009.0 |
| 20260506150747 | 66 | 148 | 3.5 | 6.1 | 0.00 | 0.00 | 0.00 | 74 | 1009.0 |
| 20260506150247 | 65 | 201 | 0.9 | 2.6 | 0.00 | 0.00 | 0.00 | 74 | 1009.0 |
| 20260506145747 | 65 | 158 | 0.0 | 1.7 | 0.00 | 0.00 | 0.00 | 74 | 1009.0 |
| 20260506145246 | 65 | 152 | 1.7 | 5.2 | 0.00 | 0.00 | 0.00 | 75 | 1009.0 |
| 20260506144746 | 65 | 306 | 0.0 | 1.7 | 0.00 | 0.00 | 0.00 | 74 | 1009.0 |
| 20260506144247 | 65 | 169 | 2.6 | 5.2 | 0.00 | 0.00 | 0.00 | 75 | 1009.0 |
| 20260506143746 | 65 | 57 | 0.9 | 3.5 | 0.00 | 0.00 | 0.00 | 75 | 1009.0 |
| 20260506143247 | 66 | 182 | 1.7 | 3.5 | 0.00 | 0.00 | 0.00 | 75 | 1009.0 |
| 20260506142747 | 66 | 234 | 0.9 | 3.5 | 0.00 | 0.00 | 0.00 | 74 | 1009.0 |
| 20260506142247 | 66 | 287 | 0.9 | 1.7 | 0.00 | 0.00 | 0.00 | 75 | 1009.0 |
| 20260506141746 | 66 | 118 | 0.9 | 2.6 | 0.00 | 0.00 | 0.00 | 75 | 1010.0 |
| 20260506141247 | 66 | 195 | 0.9 | 2.6 | 0.00 | 0.00 | 0.00 | 74 | 1009.0 |
| 20260506140747 | 65 | 172 | 1.7 | 3.5 | 0.00 | 0.00 | 0.00 | 75 | 1009.0 |
| 20260506135914 | 65 | 299 | 1.7 | 5.2 | 0.00 | 0.00 | 0.00 | 76 | 1009.0 |
| 20260506135247 | 65 | 122 | 1.7 | 2.6 | 0.00 | 0.00 | 0.00 | 76 | 1009.0 |
| 20260506134747 | 65 | 147 | 2.6 | 7.0 | 0.00 | 0.00 | 0.00 | 77 | 1009.0 |
| 20260506134246 | 64 | 159 | 3.5 | 6.1 | 0.00 | 0.00 | 0.00 | 77 | 1009.0 |
| 20260506133746 | 64 | 165 | 2.6 | 6.1 | 0.00 | 0.00 | 0.00 | 77 | 1009.0 |
| 20260506133247 | 64 | 165 | 6.1 | 7.8 | 0.00 | 0.00 | 0.00 | 77 | 1009.0 |
| 20260506132747 | 64 | 316 | 1.7 | 4.3 | 0.00 | 0.00 | 0.00 | 77 | 1009.0 |
| 20260506132247 | 64 | 203 | 0.0 | 1.7 | 0.00 | 0.00 | 0.00 | 78 | 1009.0 |
| 20260506131747 | 64 | 270 | 1.7 | 2.6 | 0.00 | 0.00 | 0.00 | 78 | 1009.0 |
| 20260506131247 | 64 | 160 | 1.7 | 3.5 | 0.00 | 0.00 | 0.00 | 78 | 1009.0 |
| 20260506130746 | 64 | 173 | 1.7 | 3.5 | 0.00 | 0.00 | 0.00 | 79 | 1009.0 |
| 20260506130249 | 64 | 159 | 2.6 | 6.1 | 0.00 | 0.00 | 0.00 | 79 | 1009.0 |
| 20260506125750 | 64 | 182 | 0.0 | 2.6 | 0.00 | 0.00 | 0.00 | 79 | 1010.0 |
| 20260506125246 | 64 | 356 | 0.9 | 1.7 | 0.00 | 0.00 | 0.00 | 79 | 1010.0 |
| 20260506124746 | 64 | 177 | 2.6 | 5.2 | 0.00 | 0.00 | 0.00 | 79 | 1010.0 |
| 20260506124246 | 64 | 185 | 1.7 | 5.2 | 0.00 | 0.00 | 0.00 | 79 | 1010.0 |
| 20260506123747 | 64 | 47 | 0.9 | 1.7 | 0.00 | 0.00 | 0.00 | 79 | 1010.0 |
| 20260506123247 | 64 | 63 | 0.9 | 2.6 | 0.00 | 0.00 | 0.00 | 79 | 1010.0 |
| 20260506122747 | 64 | 229 | 0.0 | 1.7 | 0.00 | 0.00 | 0.00 | 79 | 1010.0 |
| 20260506122247 | 64 | 294 | 0.9 | 1.7 | 0.00 | 0.00 | 0.00 | 79 | 1010.0 |
| 20260506121746 | 64 | 205 | 0.9 | 2.6 | 0.00 | 0.00 | 0.00 | 79 | 1010.0 |
| 20260506121246 | 64 | 163 | 0.9 | 3.5 | 0.00 | 0.00 | 0.00 | 79 | 1010.0 |
| 20260506120746 | 64 | 187 | 0.9 | 3.5 | 0.00 | 0.00 | 0.00 | 79 | 1009.0 |
| 20260506115803 | 64 | 143 | 1.7 | 5.2 | 0.00 | 0.00 | 0.00 | 79 | 1010.0 |
| 20260506115246 | 64 | 159 | 5.2 | 7.0 | 0.00 | 0.00 | 0.00 | 79 | 1010.0 |
| 20260506114746 | 64 | 245 | 0.9 | 1.7 | 0.00 | 0.00 | 0.00 | 79 | 1010.0 |
| 20260506114247 | 63 | 224 | 1.7 | 2.6 | 0.00 | 0.00 | 0.00 | 79 | 1010.0 |
| 20260506113751 | 63 | 189 | 1.7 | 2.6 | 0.00 | 0.00 | 0.00 | 80 | 1010.0 |
| 20260506113249 | 62 | 150 | 0.9 | 2.6 | 0.00 | 0.00 | 0.00 | 81 | 1009.0 |
| 20260506112748 | 62 | 185 | 0.9 | 2.6 | 0.00 | 0.00 | 0.00 | 82 | 1010.0 |
| 20260506112250 | 61 | 169 | 2.6 | 3.5 | 0.00 | 0.00 | 0.00 | 83 | 1010.0 |
| 20260506111746 | 60 | 187 | 1.7 | 3.5 | 0.00 | 0.00 | 0.00 | 84 | 1010.0 |
| 20260506111250 | 60 | 139 | 0.9 | 2.6 | 0.00 | 0.00 | 0.00 | 85 | 1010.0 |
| 20260506110748 | 59 | 166 | 0.9 | 2.6 | 0.00 | 0.00 | 0.00 | 87 | 1010.0 |
| 20260506110249 | 59 | 0 | 0.0 | 0.0 | 0.00 | 0.00 | 0.00 | 87 | 1010.0 |
| 20260506105748 | 59 | 163 | 0.9 | 3.5 | 0.00 | 0.00 | 0.00 | 86 | 1010.0 |
| 20260506105249 | 59 | 0 | 0.0 | 0.0 | 0.00 | 0.00 | 0.00 | 86 | 1010.0 |
| 20260506104750 | 59 | 175 | 0.9 | 2.6 | 0.00 | 0.00 | 0.00 | 86 | 1010.0 |
| 20260506104250 | 59 | 192 | 0.9 | 2.6 | 0.00 | 0.00 | 0.00 | 86 | 1010.0 |
| 20260506103750 | 59 | 135 | 0.0 | 1.7 | 0.00 | 0.00 | 0.00 | 87 | 1010.0 |
| 20260506103248 | 58 | 171 | 1.7 | 2.6 | 0.00 | 0.00 | 0.00 | 87 | 1010.0 |
| 20260506102751 | 58 | 63 | 0.9 | 2.6 | 0.00 | 0.00 | 0.00 | 87 | 1010.0 |
| 20260506102246 | 58 | 0 | 0.0 | 0.0 | 0.00 | 0.00 | 0.00 | 88 | 1010.0 |
| 20260506101749 | 58 | 168 | 0.0 | 0.9 | 0.00 | 0.00 | 0.00 | 88 | 1010.0 |
| 20260506101251 | 58 | 173 | 0.0 | 0.9 | 0.00 | 0.00 | 0.00 | 88 | 1010.0 |
| 20260506100751 | 58 | 124 | 0.0 | 1.7 | 0.00 | 0.00 | 0.00 | 88 | 1010.0 |
| 20260506100256 | 57 | 162 | 0.9 | 1.7 | 0.00 | 0.00 | 0.00 | 89 | 1010.0 |
| 20260506095746 | 57 | 150 | 0.0 | 0.9 | 0.00 | 0.00 | 0.00 | 88 | 1010.0 |
| 20260506095247 | 57 | 150 | 0.0 | 0.9 | 0.00 | 0.00 | 0.00 | 89 | 1010.0 |
| 20260506094746 | 57 | 0 | 0.0 | 0.0 | 0.00 | 0.00 | 0.00 | 89 | 1010.0 |
| 20260506094247 | 57 | 0 | 0.0 | 0.0 | 0.00 | 0.00 | 0.00 | 88 | 1010.0 |
| 20260506093747 | 57 | 144 | 1.7 | 3.5 | 0.00 | 0.00 | 0.00 | 89 | 1010.0 |
| 20260506093247 | 57 | 223 | 0.0 | 0.9 | 0.00 | 0.00 | 0.00 | 89 | 1010.0 |
| 20260506092746 | 57 | 0 | 0.0 | 0.0 | 0.00 | 0.00 | 0.00 | 88 | 1010.0 |
| 20260506092247 | 57 | 0 | 0.0 | 0.0 | 0.00 | 0.00 | 0.00 | 88 | 1010.0 |
| 20260506091746 | 57 | 0 | 0.0 | 0.0 | 0.00 | 0.00 | 0.00 | 87 | 1010.0 |
| 20260506091249 | 58 | 0 | 0.0 | 0.0 | 0.00 | 0.00 | 0.00 | 87 | 1010.0 |
| 20260506090748 | 58 | 0 | 0.0 | 0.0 | 0.00 | 0.00 | 0.00 | 86 | 1010.0 |
| 20260506090247 | 58 | 0 | 0.0 | 0.0 | 0.00 | 0.00 | 0.00 | 85 | 1010.0 |
| 20260506085747 | 58 | 163 | 0.9 | 3.5 | 0.00 | 0.00 | 0.00 | 85 | 1010.0 |
| 20260506085246 | 58 | 170 | 0.0 | 0.0 | 0.00 | 0.00 | 0.00 | 85 | 1010.0 |
| 20260506084747 | 58 | 0 | 0.0 | 0.0 | 0.00 | 0.00 | 0.00 | 85 | 1010.0 |
| 20260506084247 | 58 | 133 | 0.9 | 1.7 | 0.00 | 0.00 | 0.00 | 85 | 1010.0 |
| 20260506083746 | 58 | 0 | 0.0 | 0.0 | 0.00 | 0.00 | 0.00 | 85 | 1010.0 |
| 20260506083246 | 58 | 0 | 0.0 | 0.0 | 0.00 | 0.00 | 0.00 | 84 | 1010.0 |
| 20260506082746 | 58 | 118 | 0.0 | 1.7 | 0.00 | 0.00 | 0.00 | 84 | 1010.0 |
| 20260506082246 | 59 | 170 | 0.0 | 1.7 | 0.00 | 0.00 | 0.00 | 84 | 1010.0 |
| 20260506081746 | 59 | 0 | 0.0 | 0.0 | 0.00 | 0.00 | 0.00 | 83 | 1010.0 |
| 20260506081246 | 59 | 0 | 0.0 | 0.0 | 0.00 | 0.00 | 0.00 | 83 | 1010.0 |
| 20260506080747 | 59 | 0 | 0.0 | 0.0 | 0.00 | 0.00 | 0.00 | 82 | 1010.0 |
| 20260506080246 | 60 | 0 | 0.0 | 0.0 | 0.00 | 0.00 | 0.00 | 82 | 1010.0 |
| 20260506073246 | 61 | 0 | 0.0 | 0.0 | 0.00 | 0.00 | 0.00 | 79 | 1010.0 |
| 20260506072747 | 61 | 178 | 0.9 | 1.7 | 0.00 | 0.00 | 0.00 | 79 | 1010.0 |
| 20260506072248 | 61 | 198 | 0.0 | 0.9 | 0.00 | 0.00 | 0.00 | 78 | 1010.0 |
| 20260506071747 | 61 | 0 | 0.0 | 0.0 | 0.00 | 0.00 | 0.00 | 78 | 1010.0 |
| 20260506071246 | 62 | 154 | 0.9 | 3.5 | 0.00 | 0.00 | 0.00 | 77 | 1010.0 |
| 20260506070747 | 62 | 142 | 0.9 | 5.2 | 0.00 | 0.00 | 0.00 | 77 | 1010.0 |
| 20260506070246 | 62 | 181 | 0.0 | 1.7 | 0.00 | 0.00 | 0.00 | 76 | 1010.0 |
| 20260506062246 | 63 | 180 | 2.6 | 4.3 | 0.00 | 0.00 | 0.00 | 73 | 1009.0 |
| 20260506061746 | 63 | 183 | 3.5 | 7.0 | 0.00 | 0.00 | 0.00 | 74 | 1009.0 |
| 20260506061247 | 63 | 184 | 0.0 | 2.6 | 0.00 | 0.00 | 0.00 | 74 | 1010.0 |